sensor_id;sensor_type;location;lat;lon;timestamp;pressure;altitude;pressure_sealevel;temperature;humidity
84169;BME280;74295;50.146;8.794;2024-03-25T00:02:42;99865.34;;;7.54;66.05
84169;BME280;74295;50.146;8.794;2024-03-25T00:12:45;99859.88;;;7.49;64.96
84169;BME280;74295;50.146;8.794;2024-03-25T00:22:47;99859.03;;;7.48;66.42
84169;BME280;74295;50.146;8.794;2024-03-25T00:32:51;99859.03;;;7.48;66.57
84169;BME280;74295;50.146;8.794;2024-03-25T00:42:52;99851.66;;;7.44;67.58
84169;BME280;74295;50.146;8.794;2024-03-25T00:52:56;99878.66;;;7.32;70.25
84169;BME280;74295;50.146;8.794;2024-03-25T01:02:57;99876.78;;;6.98;73.51
84169;BME280;74295;50.146;8.794;2024-03-25T01:13:00;99866.72;;;6.82;73.43
84169;BME280;74295;50.146;8.794;2024-03-25T01:23:02;99873.75;;;6.95;72.46
84169;BME280;74295;50.146;8.794;2024-03-25T01:33:06;99866.94;;;6.92;73.28
84169;BME280;74295;50.146;8.794;2024-03-25T01:43:08;99854.72;;;6.78;75.04
84169;BME280;74295;50.146;8.794;2024-03-25T01:53:12;99860.38;;;6.65;73.85
84169;BME280;74295;50.146;8.794;2024-03-25T02:03:15;99870.16;;;6.60;74.19
84169;BME280;74295;50.146;8.794;2024-03-25T02:13:19;99866.22;;;6.62;73.57
84169;BME280;74295;50.146;8.794;2024-03-25T02:23:20;99860.47;;;6.70;72.22
84169;BME280;74295;50.146;8.794;2024-03-25T02:33:23;99865.16;;;6.75;73.36
84169;BME280;74295;50.146;8.794;2024-03-25T02:43:25;99873.25;;;6.75;71.19
84169;BME280;74295;50.146;8.794;2024-03-25T02:53:28;99872.31;;;6.69;71.94
84169;BME280;74295;50.146;8.794;2024-03-25T03:03:30;99876.28;;;6.78;70.35
84169;BME280;74295;50.146;8.794;2024-03-25T03:13:33;99885.31;;;6.72;70.83
84169;BME280;74295;50.146;8.794;2024-03-25T03:23:35;99880.72;;;6.73;69.89
84169;BME280;74295;50.146;8.794;2024-03-25T03:33:38;99873.34;;;6.57;70.67
84169;BME280;74295;50.146;8.794;2024-03-25T03:43:39;99891.69;;;6.37;72.24
84169;BME280;74295;50.146;8.794;2024-03-25T03:53:42;99876.13;;;6.09;73.46
84169;BME280;74295;50.146;8.794;2024-03-25T04:03:44;99888.56;;;5.92;74.19
84169;BME280;74295;50.146;8.794;2024-03-25T04:13:47;99900.50;;;5.96;73.80
84169;BME280;74295;50.146;8.794;2024-03-25T04:23:49;99886.28;;;6.07;72.18
84169;BME280;74295;50.146;8.794;2024-03-25T04:33:52;99894.50;;;5.83;73.09
84169;BME280;74295;50.146;8.794;2024-03-25T04:43:54;99902.47;;;5.53;74.82
84169;BME280;74295;50.146;8.794;2024-03-25T04:53:56;99902.59;;;5.22;75.70
84169;BME280;74295;50.146;8.794;2024-03-25T05:03:57;99897.09;;;4.92;77.13
84169;BME280;74295;50.146;8.794;2024-03-25T05:13:59;99916.22;;;4.78;77.63
84169;BME280;74295;50.146;8.794;2024-03-25T05:24:00;99925.31;;;4.77;78.56
84169;BME280;74295;50.146;8.794;2024-03-25T05:34:02;99935.88;;;4.72;79.01
84169;BME280;74295;50.146;8.794;2024-03-25T05:44:03;99943.88;;;4.54;79.08
84169;BME280;74295;50.146;8.794;2024-03-25T05:54:06;99949.75;;;4.69;78.29
84169;BME280;74295;50.146;8.794;2024-03-25T06:04:06;99950.41;;;4.89;76.82
84169;BME280;74295;50.146;8.794;2024-03-25T06:14:08;99945.47;;;5.10;75.85
84169;BME280;74295;50.146;8.794;2024-03-25T06:24:09;99945.16;;;5.43;74.19
84169;BME280;74295;50.146;8.794;2024-03-25T06:34:11;99957.13;;;6.19;73.46
84169;BME280;74295;50.146;8.794;2024-03-25T06:44:15;99975.41;;;6.47;71.29
84169;BME280;74295;50.146;8.794;2024-03-25T06:54:17;99991.69;;;6.52;70.70
84169;BME280;74295;50.146;8.794;2024-03-25T07:04:18;99990.50;;;6.48;69.79
84169;BME280;74295;50.146;8.794;2024-03-25T07:14:20;99977.81;;;6.66;70.48
84169;BME280;74295;50.146;8.794;2024-03-25T07:24:21;99977.88;;;6.89;69.18
84169;BME280;74295;50.146;8.794;2024-03-25T07:34:23;99990.09;;;7.03;68.23
84169;BME280;74295;50.146;8.794;2024-03-25T07:44:24;99992.94;;;7.31;67.03
84169;BME280;74295;50.146;8.794;2024-03-25T07:54:26;99995.78;;;7.59;65.42
84169;BME280;74295;50.146;8.794;2024-03-25T08:04:27;100004.41;;;7.84;65.36
84169;BME280;74295;50.146;8.794;2024-03-25T08:14:29;100001.31;;;8.16;62.72
84169;BME280;74295;50.146;8.794;2024-03-25T08:24:30;99984.25;;;8.38;62.43
84169;BME280;74295;50.146;8.794;2024-03-25T08:34:32;99979.47;;;8.85;58.88
84169;BME280;74295;50.146;8.794;2024-03-25T08:44:33;99979.91;;;9.43;56.01
84169;BME280;74295;50.146;8.794;2024-03-25T08:54:35;99979.97;;;9.48;55.85
84169;BME280;74295;50.146;8.794;2024-03-25T09:04:36;99973.50;;;9.49;54.14
84169;BME280;74295;50.146;8.794;2024-03-25T09:14:38;99977.25;;;9.48;52.72
84169;BME280;74295;50.146;8.794;2024-03-25T09:24:39;99978.81;;;9.44;50.80
84169;BME280;74295;50.146;8.794;2024-03-25T09:34:41;99969.06;;;9.97;51.49
84169;BME280;74295;50.146;8.794;2024-03-25T09:44:42;99967.38;;;10.13;49.61
84169;BME280;74295;50.146;8.794;2024-03-25T09:54:44;99950.66;;;10.43;49.07
84169;BME280;74295;50.146;8.794;2024-03-25T10:04:47;99930.72;;;10.80;48.43
84169;BME280;74295;50.146;8.794;2024-03-25T10:14:50;99910.59;;;11.03;47.11
84169;BME280;74295;50.146;8.794;2024-03-25T10:24:51;99901.75;;;10.86;47.01
84169;BME280;74295;50.146;8.794;2024-03-25T10:34:53;99871.84;;;10.76;48.07
84169;BME280;74295;50.146;8.794;2024-03-25T10:44:53;99863.56;;;10.61;46.59
84169;BME280;74295;50.146;8.794;2024-03-25T10:54:57;99867.78;;;10.20;47.08
84169;BME280;74295;50.146;8.794;2024-03-25T11:04:59;99848.28;;;9.75;47.44
84169;BME280;74295;50.146;8.794;2024-03-25T11:15:02;99845.94;;;9.83;47.59
84169;BME280;74295;50.146;8.794;2024-03-25T11:25:07;99818.19;;;10.46;46.76
84169;BME280;74295;50.146;8.794;2024-03-25T11:35:10;99813.38;;;11.31;46.26
84169;BME280;74295;50.146;8.794;2024-03-25T11:45:14;99806.34;;;11.35;44.30
84169;BME280;74295;50.146;8.794;2024-03-25T11:55:17;99777.47;;;11.76;43.93
84169;BME280;74295;50.146;8.794;2024-03-25T12:05:18;99757.50;;;11.40;44.47
84169;BME280;74295;50.146;8.794;2024-03-25T12:15:21;99759.38;;;12.36;42.55
84169;BME280;74295;50.146;8.794;2024-03-25T12:25:22;99732.19;;;12.31;41.81
84169;BME280;74295;50.146;8.794;2024-03-25T12:35:25;99725.69;;;12.27;41.14
84169;BME280;74295;50.146;8.794;2024-03-25T12:45:25;99689.50;;;12.57;42.18
84169;BME280;74295;50.146;8.794;2024-03-25T12:55:27;99684.31;;;12.70;37.28
84169;BME280;74295;50.146;8.794;2024-03-25T13:05:28;99663.88;;;12.88;37.86
84169;BME280;74295;50.146;8.794;2024-03-25T13:15:30;99640.41;;;13.07;37.95
84169;BME280;74295;50.146;8.794;2024-03-25T13:25:31;99641.19;;;13.13;38.13
84169;BME280;74295;50.146;8.794;2024-03-25T13:35:33;99607.94;;;12.62;38.85
84169;BME280;74295;50.146;8.794;2024-03-25T13:45:34;99601.44;;;12.43;39.94
84169;BME280;74295;50.146;8.794;2024-03-25T13:55:36;99582.97;;;12.40;39.49
84169;BME280;74295;50.146;8.794;2024-03-25T14:05:37;99575.97;;;12.24;39.43
84169;BME280;74295;50.146;8.794;2024-03-25T14:15:39;99564.78;;;12.35;39.36
84169;BME280;74295;50.146;8.794;2024-03-25T14:25:40;99553.66;;;12.32;43.04
84169;BME280;74295;50.146;8.794;2024-03-25T14:35:42;99545.31;;;11.83;42.75
84169;BME280;74295;50.146;8.794;2024-03-25T14:45:43;99536.06;;;11.84;39.72
84169;BME280;74295;50.146;8.794;2024-03-25T14:55:45;99511.31;;;12.06;42.93
84169;BME280;74295;50.146;8.794;2024-03-25T15:05:46;99485.31;;;11.90;44.26
84169;BME280;74295;50.146;8.794;2024-03-25T15:15:48;99469.09;;;12.38;37.58
84169;BME280;74295;50.146;8.794;2024-03-25T15:25:49;99451.38;;;12.46;36.09
84169;BME280;74295;50.146;8.794;2024-03-25T15:35:51;99437.75;;;12.56;35.59
84169;BME280;74295;50.146;8.794;2024-03-25T15:45:55;99424.38;;;12.64;35.95
84169;BME280;74295;50.146;8.794;2024-03-25T15:55:57;99396.44;;;13.55;34.33
84169;BME280;74295;50.146;8.794;2024-03-25T16:05:58;99375.50;;;16.00;30.72
84169;BME280;74295;50.146;8.794;2024-03-25T16:16:03;99378.31;;;16.35;30.51
84169;BME280;74295;50.146;8.794;2024-03-25T16:26:04;99366.25;;;16.50;29.73
84169;BME280;74295;50.146;8.794;2024-03-25T16:36:06;99364.38;;;15.69;30.02
84169;BME280;74295;50.146;8.794;2024-03-25T16:46:07;99359.63;;;14.65;31.71
84169;BME280;74295;50.146;8.794;2024-03-25T16:56:09;99332.09;;;13.64;34.66
84169;BME280;74295;50.146;8.794;2024-03-25T17:06:11;99335.66;;;13.36;35.64
84169;BME280;74295;50.146;8.794;2024-03-25T17:16:13;99338.19;;;12.65;38.11
84169;BME280;74295;50.146;8.794;2024-03-25T17:26:14;99346.16;;;11.19;44.05
84169;BME280;74295;50.146;8.794;2024-03-25T17:36:16;99329.91;;;10.24;47.81
84169;BME280;74295;50.146;8.794;2024-03-25T17:46:16;99319.91;;;9.58;50.88
84169;BME280;74295;50.146;8.794;2024-03-25T17:56:19;99331.19;;;8.93;55.14
84169;BME280;74295;50.146;8.794;2024-03-25T18:06:19;99322.38;;;8.40;56.60
84169;BME280;74295;50.146;8.794;2024-03-25T18:16:21;99316.59;;;8.05;58.90
84169;BME280;74295;50.146;8.794;2024-03-25T18:26:22;99297.78;;;7.61;62.44
84169;BME280;74295;50.146;8.794;2024-03-25T18:36:24;99300.66;;;7.33;63.77
84169;BME280;74295;50.146;8.794;2024-03-25T18:46:25;99293.78;;;7.21;62.96
84169;BME280;74295;50.146;8.794;2024-03-25T18:56:27;99295.84;;;6.97;64.46
84169;BME280;74295;50.146;8.794;2024-03-25T19:06:28;99282.19;;;6.66;66.05
84169;BME280;74295;50.146;8.794;2024-03-25T19:16:30;99270.03;;;6.63;63.42
84169;BME280;74295;50.146;8.794;2024-03-25T19:26:31;99272.78;;;6.85;61.89
84169;BME280;74295;50.146;8.794;2024-03-25T19:36:33;99257.81;;;6.56;61.26
84169;BME280;74295;50.146;8.794;2024-03-25T19:46:34;99249.72;;;6.56;62.12
84169;BME280;74295;50.146;8.794;2024-03-25T19:56:36;99244.19;;;6.46;64.83
84169;BME280;74295;50.146;8.794;2024-03-25T20:06:37;99248.78;;;6.45;62.30
84169;BME280;74295;50.146;8.794;2024-03-25T20:16:39;99232.72;;;6.34;62.15
84169;BME280;74295;50.146;8.794;2024-03-25T20:26:40;99234.97;;;6.42;61.91
84169;BME280;74295;50.146;8.794;2024-03-25T20:36:42;99239.13;;;6.49;60.42
84169;BME280;74295;50.146;8.794;2024-03-25T20:46:43;99218.25;;;6.56;60.22
84169;BME280;74295;50.146;8.794;2024-03-25T20:56:45;99201.38;;;6.44;60.59
84169;BME280;74295;50.146;8.794;2024-03-25T21:06:46;99186.72;;;6.35;61.26
84169;BME280;74295;50.146;8.794;2024-03-25T21:16:48;99184.28;;;6.34;60.65
84169;BME280;74295;50.146;8.794;2024-03-25T21:26:49;99165.09;;;6.30;60.51
84169;BME280;74295;50.146;8.794;2024-03-25T21:36:51;99163.78;;;6.33;61.20
84169;BME280;74295;50.146;8.794;2024-03-25T21:46:52;99146.34;;;6.19;62.56
84169;BME280;74295;50.146;8.794;2024-03-25T21:56:54;99135.13;;;6.05;62.21
84169;BME280;74295;50.146;8.794;2024-03-25T22:06:55;99134.25;;;6.00;62.57
84169;BME280;74295;50.146;8.794;2024-03-25T22:16:58;99135.06;;;5.84;63.42
84169;BME280;74295;50.146;8.794;2024-03-25T22:26:58;99112.47;;;5.85;62.49
84169;BME280;74295;50.146;8.794;2024-03-25T22:37:01;99125.13;;;5.84;63.26
84169;BME280;74295;50.146;8.794;2024-03-25T22:47:01;99124.09;;;5.74;63.57
84169;BME280;74295;50.146;8.794;2024-03-25T22:57:04;99124.53;;;5.66;62.79
84169;BME280;74295;50.146;8.794;2024-03-25T23:07:05;99112.59;;;5.62;63.60
84169;BME280;74295;50.146;8.794;2024-03-25T23:17:07;99100.06;;;5.51;63.82
84169;BME280;74295;50.146;8.794;2024-03-25T23:27:08;99087.84;;;5.43;64.00
84169;BME280;74295;50.146;8.794;2024-03-25T23:37:10;99091.66;;;5.30;64.05
84169;BME280;74295;50.146;8.794;2024-03-25T23:47:11;99076.25;;;5.26;64.46
84169;BME280;74295;50.146;8.794;2024-03-25T23:57:13;99077.16;;;5.31;64.50
